MDT,Max TemperatureF,Mean TemperatureF,Min TemperatureF,Max Dew PointF,MeanDew PointF,Min DewpointF,Max Humidity, Mean Humidity, Min Humidity, Max Sea Level PressureIn, Mean Sea Level PressureIn, Min Sea Level PressureIn, Max VisibilityMiles, Mean VisibilityMiles, Min VisibilityMiles, Max Wind SpeedMPH, Mean Wind SpeedMPH, Max Gust SpeedMPH,PrecipitationIn, CloudCover, Events, WindDirDegrees
2011-10-1,85,67,49,35,30,24,50,31,11,30.04,29.95,29.86,10,10,8,14,5,21,0.00,0,,244
2011-10-2,83,69,55,39,35,30,47,32,16,30.00,29.93,29.85,10,10,10,16,6,30,0.00,0,,253
2011-10-3,81,64,47,38,36,34,61,41,21,30.08,29.96,29.84,10,10,10,14,4,,0.00,0,,230
2011-10-4,79,69,59,42,38,30,51,35,19,29.84,29.71,29.60,10,10,10,23,12,37,0.00,1,,198
2011-10-5,70,60,50,41,37,35,64,48,31,29.58,29.48,29.35,10,10,10,33,16,48,0.00,2,,199
2011-10-6,58,45,32,43,36,29,92,65,38,29.54,29.41,29.26,10,8,2,24,8,37,0.37,6,Rain,312
2011-10-7,54,43,32,41,33,26,93,70,46,29.95,29.68,29.49,10,7,0,13,6,,0.52,7,Fog-Rain-Snow,80
2011-10-8,44,42,39,39,37,35,100,88,76,30.27,30.15,29.91,10,7,2,15,6,,0.50,8,Rain,326
2011-10-9,54,45,35,37,32,24,92,68,44,30.25,30.09,29.94,10,10,10,12,4,,0.00,6,,202
2011-10-10,60,47,33,32,27,24,70,49,28,29.93,29.85,29.71,10,10,10,12,6,16,0.00,1,,215
2011-10-11,65,52,38,35,32,25,82,55,28,29.90,29.74,29.63,10,10,10,27,9,38,T,1,,293
2011-10-12,62,48,34,34,27,20,76,48,20,30.12,30.03,29.90,10,10,10,14,3,21,0.00,0,,189
2011-10-13,67,51,34,30,25,19,64,42,20,30.04,29.97,29.87,10,10,10,10,5,,0.00,0,,154
2011-10-14,64,51,37,37,32,28,70,53,36,30.06,29.97,29.90,10,10,10,10,6,,0.00,1,Rain,303
2011-10-15,78,59,39,40,32,25,70,43,16,29.94,29.87,29.79,10,10,10,18,6,28,0.00,0,,294
2011-10-16,57,48,38,40,38,35,86,71,55,30.13,29.98,29.89,10,10,10,12,4,,0.02,4,,315
2011-10-17,54,46,37,45,37,30,100,72,44,30.30,30.16,29.86,10,8,2,15,5,20,0.35,5,Rain,162
2011-10-18,55,44,33,32,27,24,82,57,32,30.45,30.35,30.26,10,10,10,10,4,,0.00,0,,203
2011-10-19,58,45,31,33,28,24,78,54,30,30.23,30.05,29.89,10,10,10,7,2,,0.00,0,,296
2011-10-20,65,51,37,31,26,23,64,43,22,30.04,29.98,29.89,10,10,10,12,4,,0.00,0,,232
2011-10-21,61,50,38,33,29,24,59,44,29,30.14,30.09,30.04,10,10,10,10,3,,0.00,2,,265
2011-10-22,64,50,36,34,28,22,76,50,23,30.15,30.07,30.00,10,10,10,12,3,,0.00,0,,256
2011-10-23,69,51,33,31,27,22,70,45,20,30.11,30.04,29.96,10,10,10,9,4,22,0.00,0,,291
2011-10-24,71,54,36,30,25,15,64,39,14,29.95,29.82,29.70,10,10,10,13,6,23,0.00,0,,302
2011-10-25,36,33,29,36,30,21,96,76,56,30.31,30.14,29.89,10,6,0,9,5,25,0.08,8,Fog-Rain-Snow,4
2011-10-26,38,31,24,28,25,19,100,76,52,30.35,30.25,30.09,10,5,1,9,5,,0.04,6,Snow,301
2011-10-27,50,37,23,22,18,15,81,53,24,30.18,30.12,30.03,10,10,10,12,5,18,0.00,1,,207
2011-10-28,50,38,25,22,15,6,63,41,18,30.31,30.18,30.01,10,10,9,9,3,14,0.00,0,,196
2011-10-29,61,47,33,23,17,9,54,35,16,30.11,29.96,29.85,10,10,10,22,6,38,0.00,0,,24
2011-10-30,64,44,24,26,23,20,75,48,20,30.20,30.10,30.04,10,10,10,9,4,21,0.00,0,,111
2011-10-31,65,50,34,31,26,22,59,42,25,30.03,29.91,29.82,10,10,10,15,5,32,0.00,1,,274